createdAt,value
2023-04-19T00:00:02.238Z,0.00
2023-04-19T00:01:02.223Z,0.00
2023-04-19T00:02:02.319Z,0.00
2023-04-19T00:03:02.396Z,0.00
2023-04-19T00:04:02.342Z,0.00
2023-04-19T00:05:02.312Z,0.00
2023-04-19T00:06:02.157Z,0.00
2023-04-19T00:07:02.160Z,0.00
2023-04-19T00:08:02.175Z,0.00
2023-04-19T00:09:02.120Z,0.00
2023-04-19T00:10:02.109Z,0.00
2023-04-19T00:11:02.138Z,0.00
2023-04-19T00:12:02.100Z,0.00
2023-04-19T00:13:02.076Z,0.00
2023-04-19T00:14:02.067Z,0.00
2023-04-19T00:15:02.047Z,0.00
2023-04-19T00:16:02.024Z,0.00
2023-04-19T00:17:02.075Z,0.00
2023-04-19T00:18:02.153Z,0.00
2023-04-19T00:19:02.032Z,0.00
2023-04-19T00:20:01.984Z,0.00
2023-04-19T00:21:01.965Z,0.00
2023-04-19T00:22:01.967Z,0.00
2023-04-19T00:23:01.951Z,0.00
2023-04-19T00:24:01.926Z,0.00
2023-04-19T00:25:01.916Z,0.00
2023-04-19T00:26:01.904Z,0.00
2023-04-19T00:27:01.908Z,0.00
2023-04-19T00:28:01.877Z,0.00
2023-04-19T00:29:01.951Z,0.00
2023-04-19T00:30:01.852Z,0.00
2023-04-19T00:31:01.952Z,0.00
2023-04-19T00:32:01.838Z,0.00
2023-04-19T00:33:01.866Z,0.00
2023-04-19T00:34:01.784Z,0.00
2023-04-19T00:35:01.775Z,0.00
2023-04-19T00:36:01.821Z,0.00
2023-04-19T00:37:01.795Z,0.00
2023-04-19T00:38:01.741Z,0.00
2023-04-19T00:39:01.724Z,0.00
2023-04-19T00:40:01.767Z,0.00
2023-04-19T00:41:01.710Z,0.00
2023-04-19T00:42:01.709Z,0.00
2023-04-19T00:43:01.675Z,0.00
2023-04-19T00:44:01.657Z,0.00
2023-04-19T00:45:01.655Z,0.00
2023-04-19T00:46:01.755Z,0.00
2023-04-19T00:47:01.677Z,0.00
2023-04-19T00:48:01.636Z,0.00
2023-04-19T00:49:01.593Z,0.00
2023-04-19T00:50:01.580Z,0.00
2023-04-19T00:51:01.570Z,0.00
2023-04-19T00:52:01.582Z,0.00
2023-04-19T00:53:01.540Z,0.00
2023-04-19T00:54:01.527Z,0.00
2023-04-19T00:55:01.525Z,0.00
2023-04-19T00:56:01.511Z,0.00
2023-04-19T00:57:09.163Z,0.00
2023-04-19T00:58:01.477Z,0.00
2023-04-19T00:59:01.515Z,0.00
2023-04-19T01:00:01.449Z,0.00
2023-04-19T01:01:01.473Z,0.00
2023-04-19T01:02:01.800Z,0.00
2023-04-19T01:03:01.598Z,0.00
2023-04-19T01:04:01.491Z,0.00
2023-04-19T01:05:01.385Z,0.00
2023-04-19T01:06:01.380Z,0.00
2023-04-19T01:07:01.355Z,0.00
2023-04-19T01:08:01.377Z,0.00
2023-04-19T01:09:01.324Z,0.00
2023-04-19T01:10:01.318Z,0.00
2023-04-19T01:11:01.307Z,0.00
2023-04-19T01:12:01.292Z,0.00
2023-04-19T01:13:01.290Z,0.00
2023-04-19T01:14:01.265Z,0.00
2023-04-19T01:15:01.261Z,0.00
2023-04-19T01:16:01.280Z,0.00
2023-04-19T01:17:01.221Z,0.00
2023-04-19T01:18:01.317Z,0.00
2023-04-19T01:19:01.205Z,0.00
2023-04-19T01:20:01.189Z,0.00
2023-04-19T01:21:01.179Z,0.00
2023-04-19T01:22:01.159Z,0.00
2023-04-19T01:23:01.170Z,0.00
2023-04-19T01:24:01.154Z,0.00
2023-04-19T01:25:01.122Z,0.00
2023-04-19T01:26:01.107Z,0.00
2023-04-19T01:27:01.104Z,0.00
2023-04-19T01:28:01.112Z,0.00
2023-04-19T01:29:01.063Z,0.00
2023-04-19T01:30:01.072Z,0.00
2023-04-19T01:31:01.091Z,0.00
2023-04-19T01:32:01.025Z,0.00
2023-04-19T01:33:01.066Z,0.00
2023-04-19T01:34:01.003Z,0.00
2023-04-19T01:35:00.990Z,0.00
2023-04-19T01:36:00.979Z,0.00
2023-04-19T01:37:00.977Z,0.00
2023-04-19T01:38:01.008Z,0.00
2023-04-19T01:39:00.937Z,0.00
2023-04-19T01:40:00.925Z,0.00
2023-04-19T01:41:03.077Z,0.00
2023-04-19T01:42:01.667Z,0.00
2023-04-19T01:43:01.913Z,0.00
2023-04-19T01:44:00.879Z,0.00
2023-04-19T01:45:00.854Z,0.00
2023-04-19T01:46:00.851Z,0.00
2023-04-19T01:47:00.858Z,0.00
2023-04-19T01:48:00.871Z,0.00
2023-04-19T01:49:00.812Z,0.00
2023-04-19T01:50:00.797Z,0.00
2023-04-19T01:51:00.777Z,0.00
2023-04-19T01:52:00.768Z,0.00
2023-04-19T01:53:00.806Z,0.00
2023-04-19T01:54:00.748Z,0.00
2023-04-19T01:55:00.723Z,0.00
2023-04-19T01:56:00.714Z,0.00
2023-04-19T01:57:00.699Z,0.00
2023-04-19T01:58:00.724Z,0.00
2023-04-19T01:59:00.703Z,0.00
2023-04-19T02:00:00.661Z,0.00
2023-04-19T02:01:00.680Z,0.00
2023-04-19T02:02:00.692Z,0.00
2023-04-19T02:03:00.760Z,0.00
2023-04-19T02:04:00.763Z,0.00
2023-04-19T02:05:00.594Z,0.00
2023-04-19T02:06:00.590Z,0.00
2023-04-19T02:07:00.584Z,0.00
2023-04-19T02:08:00.620Z,0.00
2023-04-19T02:09:00.554Z,0.00
2023-04-19T02:10:00.538Z,0.00
2023-04-19T02:11:00.516Z,0.00
2023-04-19T02:12:00.513Z,0.00
2023-04-19T02:13:00.515Z,0.00
2023-04-19T02:14:00.499Z,0.00
2023-04-19T02:15:00.544Z,0.00
2023-04-19T02:16:00.502Z,0.00
2023-04-19T02:17:00.438Z,0.00
2023-04-19T02:18:00.510Z,0.00
2023-04-19T02:19:00.433Z,0.00
2023-04-19T02:20:00.397Z,0.00
2023-04-19T02:21:00.383Z,0.00
2023-04-19T02:22:00.534Z,0.00
2023-04-19T02:23:00.430Z,0.00
2023-04-19T02:24:00.345Z,0.00
2023-04-19T02:25:00.346Z,0.00
2023-04-19T02:26:00.324Z,0.00
2023-04-19T02:27:00.316Z,0.00
2023-04-19T02:28:00.329Z,0.00
2023-04-19T02:29:00.286Z,0.00
2023-04-19T02:30:00.268Z,0.00
2023-04-19T02:31:00.255Z,0.00
2023-04-19T02:32:00.296Z,0.00
2023-04-19T02:33:00.302Z,0.00
2023-04-19T02:34:00.222Z,0.00
2023-04-19T02:35:00.207Z,0.00
2023-04-19T02:36:00.191Z,0.00
2023-04-19T02:37:00.177Z,0.00
2023-04-19T02:38:00.191Z,0.00
2023-04-19T02:39:00.149Z,0.00
2023-04-19T02:40:00.175Z,0.00
2023-04-19T02:41:00.135Z,0.00
2023-04-19T02:42:00.135Z,0.00
2023-04-19T02:43:00.139Z,0.00
2023-04-19T02:44:00.132Z,0.00
2023-04-19T02:45:00.065Z,0.00
2023-04-19T02:46:00.105Z,0.00
2023-04-19T02:47:00.084Z,0.00
2023-04-19T02:48:00.217Z,0.00
2023-04-19T02:49:00.024Z,0.00
2023-04-19T02:50:00.012Z,0.00
2023-04-19T02:50:59.992Z,0.00
2023-04-19T02:51:59.979Z,0.00
2023-04-19T02:52:59.991Z,0.00
2023-04-19T02:53:59.956Z,0.00
2023-04-19T02:54:59.937Z,0.00
2023-04-19T02:55:59.932Z,0.00
2023-04-19T02:56:59.921Z,0.00
2023-04-19T02:57:59.942Z,0.00
2023-04-19T02:58:59.881Z,0.00
2023-04-19T02:59:59.881Z,0.00
2023-04-19T03:00:59.869Z,0.00
2023-04-19T03:01:59.905Z,0.00
2023-04-19T03:02:59.925Z,0.00
2023-04-19T03:03:59.875Z,0.00
2023-04-19T03:04:59.803Z,0.00
2023-04-19T03:05:59.797Z,0.00
2023-04-19T03:06:59.779Z,0.00
2023-04-19T03:07:59.807Z,0.00
2023-04-19T03:08:59.751Z,0.00
2023-04-19T03:09:59.739Z,0.00
2023-04-19T03:10:59.730Z,0.00
2023-04-19T03:11:59.718Z,0.00
2023-04-19T03:12:59.734Z,0.00
2023-04-19T03:13:59.694Z,0.00
2023-04-19T03:14:59.670Z,0.00
2023-04-19T03:15:59.699Z,0.00
2023-04-19T03:16:59.658Z,0.00
2023-04-19T03:17:59.686Z,0.00
2023-04-19T03:18:59.620Z,0.00
2023-04-19T03:19:59.612Z,0.00
2023-04-19T03:20:59.607Z,0.00
2023-04-19T03:21:59.590Z,0.00
2023-04-19T03:22:59.589Z,0.00
2023-04-19T03:23:59.556Z,0.00
2023-04-19T03:24:59.542Z,0.00
2023-04-19T03:25:59.529Z,0.00
2023-04-19T03:26:59.518Z,0.00
2023-04-19T03:27:59.523Z,0.00
2023-04-19T03:28:59.475Z,0.00
2023-04-19T03:29:59.469Z,0.00
2023-04-19T03:30:59.479Z,0.00
2023-04-19T03:31:59.445Z,0.00
2023-04-19T03:32:59.565Z,0.00
2023-04-19T03:33:59.415Z,0.00
2023-04-19T03:34:59.417Z,0.00
2023-04-19T03:35:59.386Z,0.00
2023-04-19T03:36:59.382Z,0.00
2023-04-19T03:37:59.401Z,0.00
2023-04-19T03:38:59.350Z,0.00
2023-04-19T03:39:59.330Z,0.00
2023-04-19T03:40:59.328Z,0.00
2023-04-19T03:41:59.319Z,0.00
2023-04-19T03:42:59.314Z,0.00
2023-04-19T03:43:59.287Z,0.00
2023-04-19T03:44:59.342Z,0.00
2023-04-19T03:45:59.275Z,0.00
2023-04-19T03:46:59.244Z,0.00
2023-04-19T03:48:02.124Z,0.00
2023-04-19T03:48:59.261Z,0.00
2023-04-19T03:49:59.213Z,0.00
2023-04-19T03:50:59.192Z,0.00
2023-04-19T03:51:59.213Z,0.00
2023-04-19T03:52:59.179Z,0.00
2023-04-19T03:53:59.180Z,0.00
2023-04-19T03:54:59.146Z,0.00
2023-04-19T03:55:59.139Z,0.00
2023-04-19T03:56:59.116Z,0.00
2023-04-19T03:57:59.130Z,0.00
2023-04-19T03:58:59.122Z,0.00
2023-04-19T03:59:59.078Z,0.00
2023-04-19T04:00:58.997Z,0.00
2023-04-19T04:01:59.104Z,0.00
2023-04-19T04:02:59.198Z,0.00
2023-04-19T04:04:00.072Z,0.00
2023-04-19T04:04:59.122Z,0.00
2023-04-19T04:05:58.939Z,0.00
2023-04-19T04:06:58.931Z,0.00
2023-04-19T04:07:58.917Z,0.00
2023-04-19T04:08:58.920Z,0.00
2023-04-19T04:09:58.892Z,0.00
2023-04-19T04:10:58.866Z,0.00
2023-04-19T04:11:58.861Z,0.00
2023-04-19T04:12:58.853Z,0.00
2023-04-19T04:13:58.878Z,0.00
2023-04-19T04:14:58.829Z,0.00
2023-04-19T04:15:58.836Z,0.00
2023-04-19T04:16:58.785Z,0.00
2023-04-19T04:17:58.793Z,0.00
2023-04-19T04:18:58.794Z,0.00
2023-04-19T04:19:58.772Z,0.00
2023-04-19T04:20:58.732Z,0.00
2023-04-19T04:21:58.741Z,0.00
2023-04-19T04:22:58.715Z,0.00
2023-04-19T04:23:59.075Z,0.00
2023-04-19T04:24:58.685Z,0.00
2023-04-19T04:25:58.666Z,0.00
2023-04-19T04:26:58.656Z,0.00
2023-04-19T04:27:58.674Z,0.01
2023-04-19T04:28:58.631Z,0.01
2023-04-19T04:29:58.630Z,0.01
2023-04-19T04:30:58.608Z,0.01
2023-04-19T04:31:58.621Z,0.01
2023-04-19T04:32:58.627Z,0.01
2023-04-19T04:33:58.601Z,0.01
2023-04-19T04:34:58.572Z,0.01
2023-04-19T04:35:58.560Z,0.01
2023-04-19T04:36:58.543Z,0.03
2023-04-19T04:37:58.536Z,0.03
2023-04-19T04:38:58.564Z,0.03
2023-04-19T04:39:58.512Z,0.03
2023-04-19T04:40:58.497Z,0.03
2023-04-19T04:41:58.484Z,0.03
2023-04-19T04:42:58.468Z,0.03
2023-04-19T04:44:11.523Z,0.03
2023-04-19T04:44:58.445Z,0.03
2023-04-19T04:45:58.574Z,0.04
2023-04-19T04:46:58.433Z,0.04
2023-04-19T04:47:58.449Z,0.04
2023-04-19T04:48:58.409Z,0.04
2023-04-19T04:49:58.391Z,0.04
2023-04-19T04:50:58.380Z,0.04
2023-04-19T04:51:58.361Z,0.05
2023-04-19T04:52:58.338Z,0.05
2023-04-19T04:53:58.357Z,0.05
2023-04-19T04:54:58.312Z,0.06
2023-04-19T04:55:58.301Z,0.06
2023-04-19T04:56:58.325Z,0.06
2023-04-19T04:57:58.286Z,0.06
2023-04-19T04:58:58.280Z,0.08
2023-04-19T04:59:58.259Z,0.08
2023-04-19T05:00:58.284Z,0.08
2023-04-19T05:01:58.269Z,0.08
2023-04-19T05:02:58.279Z,0.09
2023-04-19T05:03:58.327Z,0.09
2023-04-19T05:04:58.213Z,0.09
2023-04-19T05:05:58.170Z,0.09
2023-04-19T05:06:58.159Z,0.09
2023-04-19T05:07:58.144Z,0.09
2023-04-19T05:08:58.168Z,0.09
2023-04-19T05:09:58.107Z,0.10
2023-04-19T05:10:58.104Z,0.10
2023-04-19T05:11:58.086Z,0.10
2023-04-19T05:12:58.081Z,0.10
2023-04-19T05:13:58.076Z,0.10
2023-04-19T05:14:58.054Z,0.11
2023-04-19T05:15:58.066Z,0.11
2023-04-19T05:16:58.032Z,0.11
2023-04-19T05:17:58.051Z,0.13
2023-04-19T05:18:58.006Z,0.13
2023-04-19T05:19:57.995Z,0.13
2023-04-19T05:20:57.983Z,0.14
2023-04-19T05:21:57.977Z,0.14
2023-04-19T05:22:57.944Z,0.14
2023-04-19T05:23:57.965Z,0.14
2023-04-19T05:24:57.920Z,0.14
2023-04-19T05:25:57.920Z,0.14
2023-04-19T05:26:57.896Z,0.14
2023-04-19T05:27:57.882Z,0.15
2023-04-19T05:28:57.888Z,0.15
2023-04-19T05:29:57.879Z,0.16
2023-04-19T05:30:57.881Z,0.16
2023-04-19T05:31:57.827Z,0.18
2023-04-19T05:32:57.855Z,0.18
2023-04-19T05:33:57.828Z,0.18
2023-04-19T05:34:57.794Z,0.18
2023-04-19T05:35:57.795Z,0.19
2023-04-19T05:36:57.776Z,0.19
2023-04-19T05:37:57.745Z,0.20
2023-04-19T05:38:57.836Z,0.20
2023-04-19T05:39:57.721Z,0.20
2023-04-19T05:40:57.719Z,0.20
2023-04-19T05:41:57.698Z,0.20
2023-04-19T05:42:57.712Z,0.20
2023-04-19T05:43:57.712Z,0.20
2023-04-19T05:44:57.674Z,0.20
2023-04-19T05:45:57.713Z,0.22
2023-04-19T05:46:57.696Z,0.22
2023-04-19T05:47:57.668Z,0.22
2023-04-19T05:48:57.651Z,0.22
2023-04-19T05:49:57.601Z,0.23
2023-04-19T05:50:57.597Z,0.23
2023-04-19T05:51:57.589Z,0.23
2023-04-19T05:52:57.587Z,0.24
2023-04-19T05:53:57.939Z,0.25
2023-04-19T05:54:57.540Z,0.25
2023-04-19T05:55:57.529Z,0.27
2023-04-19T05:56:57.510Z,0.27
2023-04-19T05:57:57.526Z,0.28
2023-04-19T05:58:57.498Z,0.28
2023-04-19T05:59:57.500Z,0.27
2023-04-19T06:00:57.464Z,0.27
2023-04-19T06:01:57.573Z,0.27
2023-04-19T06:02:57.580Z,0.27
2023-04-19T06:03:57.719Z,0.27
2023-04-19T06:04:57.519Z,0.28
2023-04-19T06:05:57.419Z,0.28
2023-04-19T06:06:57.389Z,0.28
2023-04-19T06:08:02.559Z,0.28
2023-04-19T06:08:57.392Z,0.28
2023-04-19T06:09:57.337Z,0.29
2023-04-19T06:11:02.156Z,0.29
2023-04-19T06:11:57.313Z,0.29
2023-04-19T06:12:57.305Z,0.30
2023-04-19T06:13:57.328Z,0.30
2023-04-19T06:14:57.300Z,0.30
2023-04-19T06:15:57.275Z,0.32
2023-04-19T06:16:57.240Z,0.32
2023-04-19T06:17:59.336Z,0.32
2023-04-19T06:18:57.238Z,0.33
2023-04-19T06:19:57.210Z,0.32
2023-04-19T06:20:57.186Z,0.33
2023-04-19T06:21:57.278Z,0.33
2023-04-19T06:22:57.158Z,0.33
2023-04-19T06:23:57.152Z,0.33
2023-04-19T06:24:57.167Z,0.33
2023-04-19T06:25:57.125Z,0.34
2023-04-19T06:26:57.130Z,0.34
2023-04-19T06:27:57.088Z,0.34
2023-04-19T06:28:57.200Z,0.35
2023-04-19T06:29:57.088Z,0.35
2023-04-19T06:30:57.056Z,0.37
2023-04-19T06:31:57.122Z,0.37
2023-04-19T06:32:57.095Z,0.38
2023-04-19T06:33:57.021Z,0.38
2023-04-19T06:34:57.022Z,0.38
2023-04-19T06:35:56.984Z,0.38
2023-04-19T06:36:56.989Z,0.38
2023-04-19T06:37:56.956Z,0.38
2023-04-19T06:38:56.961Z,0.38
2023-04-19T06:39:56.960Z,0.38
2023-04-19T06:40:57.043Z,0.38
2023-04-19T06:41:56.905Z,0.39
2023-04-19T06:42:56.901Z,0.41
2023-04-19T06:43:56.884Z,0.42
2023-04-19T06:44:56.888Z,0.42
2023-04-19T06:45:56.899Z,0.44
2023-04-19T06:46:56.838Z,0.44
2023-04-19T06:47:56.839Z,0.43
2023-04-19T06:48:56.831Z,0.43
2023-04-19T06:49:56.837Z,0.43
2023-04-19T06:50:56.793Z,0.44
2023-04-19T06:51:56.772Z,0.46
2023-04-19T06:52:56.782Z,0.47
2023-04-19T06:53:56.751Z,0.48
2023-04-19T06:54:56.755Z,0.47
2023-04-19T06:55:56.724Z,0.47
2023-04-19T06:56:56.716Z,0.48
2023-04-19T06:57:56.691Z,0.48
2023-04-19T06:58:56.683Z,0.48
2023-04-19T06:59:56.687Z,0.48
2023-04-19T07:00:56.714Z,0.48
2023-04-19T07:01:56.780Z,0.48
2023-04-19T07:02:56.760Z,0.48
2023-04-19T07:03:57.647Z,0.48
2023-04-19T07:04:56.622Z,0.49
2023-04-19T07:05:56.690Z,0.49
2023-04-19T07:06:56.582Z,0.51
2023-04-19T07:07:56.561Z,0.52
2023-04-19T07:08:56.548Z,0.53
2023-04-19T07:09:56.564Z,0.53
2023-04-19T07:10:56.529Z,0.53
2023-04-19T07:11:56.508Z,0.53
2023-04-19T07:12:56.497Z,0.52
2023-04-19T07:13:56.488Z,0.53
2023-04-19T07:14:56.547Z,0.53
2023-04-19T07:15:56.534Z,0.56
2023-04-19T07:16:56.473Z,0.57
2023-04-19T07:17:56.473Z,0.57
2023-04-19T07:18:56.414Z,0.58
2023-04-19T07:19:56.434Z,0.59
2023-04-19T07:20:56.417Z,0.61
2023-04-19T07:21:56.375Z,0.61
2023-04-19T07:22:56.378Z,0.59
2023-04-19T07:23:56.355Z,0.62
2023-04-19T07:24:56.363Z,0.66
2023-04-19T07:25:56.331Z,0.68
2023-04-19T07:26:56.328Z,0.68
2023-04-19T07:27:56.304Z,0.70
2023-04-19T07:28:56.280Z,0.71
2023-04-19T07:29:56.277Z,0.71
2023-04-19T07:30:56.261Z,0.72
2023-04-19T07:31:56.267Z,0.75
2023-04-19T07:32:56.234Z,0.76
2023-04-19T07:33:56.237Z,0.75
2023-04-19T07:34:56.222Z,0.75
2023-04-19T07:35:56.193Z,0.77
2023-04-19T07:36:56.189Z,0.80
2023-04-19T07:37:56.176Z,0.80
2023-04-19T07:38:56.149Z,0.78
2023-04-19T07:39:56.152Z,0.78
2023-04-19T07:40:56.136Z,0.77
2023-04-19T07:41:56.102Z,0.77
2023-04-19T07:42:56.096Z,0.81
2023-04-19T07:43:56.085Z,0.86
2023-04-19T07:44:56.075Z,0.87
2023-04-19T07:45:56.145Z,0.86
2023-04-19T07:46:56.145Z,0.85
2023-04-19T07:47:56.054Z,0.80
2023-04-19T07:48:56.027Z,0.73
2023-04-19T07:49:56.020Z,0.77
2023-04-19T07:50:56.112Z,0.77
2023-04-19T07:51:55.979Z,0.80
2023-04-19T07:52:55.990Z,0.80
2023-04-19T07:53:55.944Z,0.72
2023-04-19T07:54:55.973Z,0.67
2023-04-19T07:55:55.920Z,0.70
2023-04-19T07:56:55.914Z,0.73
2023-04-19T07:57:55.985Z,0.87
2023-04-19T07:59:06.976Z,0.95
2023-04-19T07:59:55.890Z,1.00
2023-04-19T08:00:55.878Z,1.01
2023-04-19T08:01:55.954Z,1.03
2023-04-19T08:02:56.011Z,1.06
2023-04-19T08:03:55.945Z,1.11
2023-04-19T08:04:55.957Z,1.13
2023-04-19T08:05:55.785Z,1.14
2023-04-19T08:06:55.784Z,1.13
2023-04-19T08:07:55.780Z,1.14
2023-04-19T08:08:55.755Z,1.06
2023-04-19T08:09:55.842Z,1.00
2023-04-19T08:10:55.752Z,0.97
2023-04-19T08:11:55.744Z,1.00
2023-04-19T08:13:04.531Z,1.00
2023-04-19T08:14:06.942Z,0.99
2023-04-19T08:15:05.264Z,0.94
2023-04-19T08:17:22.082Z,0.96
2023-04-19T08:17:55.674Z,1.04
2023-04-19T08:18:55.620Z,1.08
2023-04-19T08:19:55.624Z,1.11
2023-04-19T08:20:55.597Z,1.14
2023-04-19T08:21:55.580Z,1.13
2023-04-19T08:22:55.580Z,1.10
2023-04-19T08:23:55.552Z,1.08
2023-04-19T08:24:55.570Z,1.09
2023-04-19T08:25:55.537Z,1.03
2023-04-19T08:26:55.859Z,1.00
2023-04-19T08:27:55.514Z,0.99
2023-04-19T08:28:55.488Z,1.00
2023-04-19T08:29:55.508Z,0.99
2023-04-19T08:30:55.475Z,0.99
2023-04-19T08:31:55.486Z,1.01
2023-04-19T08:32:57.163Z,0.96
2023-04-19T08:33:55.423Z,0.94
2023-04-19T08:34:55.438Z,0.97
2023-04-19T08:35:55.406Z,1.01
2023-04-19T08:37:03.349Z,1.01
2023-04-19T08:37:55.381Z,0.99
2023-04-19T08:39:24.809Z,0.94
2023-04-19T08:39:55.351Z,0.96
2023-04-19T08:40:55.365Z,0.94
2023-04-19T08:42:04.718Z,1.00
2023-04-19T08:42:55.309Z,1.05
2023-04-19T08:43:55.306Z,1.03
2023-04-19T08:45:55.333Z,0.94
2023-04-19T08:46:55.264Z,0.90
2023-04-19T08:48:00.953Z,0.94
2023-04-19T08:48:55.317Z,0.92
2023-04-19T08:50:08.719Z,0.85
2023-04-19T08:51:04.915Z,0.77
2023-04-19T08:51:55.195Z,0.77
2023-04-19T08:52:59.025Z,0.77
2023-04-19T08:53:55.216Z,0.76
2023-04-19T08:54:55.164Z,0.75
2023-04-19T08:56:12.267Z,0.75
2023-04-19T08:56:55.128Z,0.76
2023-04-19T08:57:55.101Z,0.75
2023-04-19T08:59:11.067Z,0.72
2023-04-19T08:59:55.080Z,0.76
2023-04-19T09:00:55.136Z,0.77
2023-04-19T09:01:55.052Z,0.73
2023-04-19T09:02:55.203Z,0.72
2023-04-19T09:04:07.371Z,0.77
2023-04-19T09:04:55.339Z,0.81
2023-04-19T09:05:55.303Z,0.82
2023-04-19T09:06:55.022Z,0.85
2023-04-19T09:07:54.968Z,0.85
2023-04-19T09:08:54.958Z,0.85
2023-04-19T09:10:02.413Z,0.81
2023-04-19T09:10:54.951Z,0.75
2023-04-19T09:11:54.916Z,0.68
2023-04-19T09:12:54.906Z,0.59
2023-04-19T09:13:54.892Z,0.52
2023-04-19T09:15:01.773Z,0.44
2023-04-19T09:15:54.954Z,0.41
2023-04-19T09:16:54.860Z,0.38
2023-04-19T09:17:54.894Z,0.39
2023-04-19T09:19:02.555Z,0.43
2023-04-19T09:19:54.840Z,0.48
2023-04-19T09:20:54.978Z,0.54
2023-04-19T09:21:55.316Z,0.66
2023-04-19T09:22:54.768Z,0.80
2023-04-19T09:23:54.758Z,0.97
2023-04-19T09:26:21.533Z,1.18
2023-04-19T09:26:54.710Z,1.23
2023-04-19T09:27:54.701Z,1.19
2023-04-19T09:28:54.727Z,1.18
2023-04-19T09:29:54.709Z,1.18
2023-04-19T09:31:05.715Z,1.20
2023-04-19T09:31:54.695Z,1.20
2023-04-19T09:32:54.681Z,1.15
2023-04-19T09:33:54.693Z,1.05
2023-04-19T09:34:54.642Z,0.91
2023-04-19T09:35:54.595Z,0.81
2023-04-19T09:37:04.661Z,0.75
2023-04-19T09:38:04.677Z,0.63
2023-04-19T09:38:54.552Z,0.56
2023-04-19T09:39:54.564Z,0.53
2023-04-19T09:40:54.548Z,0.54
2023-04-19T09:41:54.552Z,0.53
2023-04-19T09:43:08.841Z,0.49
2023-04-19T09:45:27.739Z,0.49
2023-04-19T09:45:54.518Z,0.51
2023-04-19T09:46:54.487Z,0.51
2023-04-19T09:47:54.449Z,0.53
2023-04-19T09:48:54.430Z,0.56
2023-04-19T09:49:54.927Z,0.59
2023-04-19T09:50:59.548Z,0.65
2023-04-19T09:51:54.381Z,0.70
2023-04-19T09:52:54.367Z,0.70
2023-04-19T09:53:54.365Z,0.65
2023-04-19T09:54:54.364Z,0.62
2023-04-19T09:56:01.283Z,0.62
2023-04-19T09:56:57.428Z,0.59
2023-04-19T09:57:54.311Z,0.58
2023-04-19T09:59:54.299Z,0.58
2023-04-19T10:01:02.846Z,0.61
2023-04-19T10:01:54.346Z,0.66
2023-04-19T10:02:54.279Z,0.70
2023-04-19T10:03:55.342Z,0.67
2023-04-19T10:05:11.173Z,0.66
2023-04-19T10:05:54.205Z,0.66
2023-04-19T10:07:19.299Z,0.72
2023-04-19T10:07:56.724Z,0.78
2023-04-19T10:08:54.173Z,0.84
2023-04-19T10:09:56.462Z,0.86
2023-04-19T10:10:54.147Z,0.85
2023-04-19T10:11:58.120Z,0.84
2023-04-19T10:13:54.114Z,0.94
2023-04-19T10:14:54.110Z,0.99
2023-04-19T10:16:01.486Z,1.00
2023-04-19T10:16:54.102Z,1.00
2023-04-19T10:17:54.085Z,1.06
2023-04-19T10:18:54.044Z,1.15
2023-04-19T10:19:54.041Z,1.23
2023-04-19T10:20:54.028Z,1.29
2023-04-19T10:21:53.987Z,1.32
2023-04-19T10:22:53.980Z,1.33
2023-04-19T10:23:53.974Z,1.32
2023-04-19T10:24:53.983Z,1.32
2023-04-19T10:25:53.942Z,1.35
2023-04-19T10:26:53.920Z,1.37
2023-04-19T10:27:53.914Z,1.38
2023-04-19T10:28:53.891Z,1.42
2023-04-19T10:29:53.886Z,1.44
2023-04-19T10:30:53.888Z,1.48
2023-04-19T10:31:53.924Z,1.56
2023-04-19T10:32:53.891Z,1.56
2023-04-19T10:33:53.835Z,1.56
2023-04-19T10:34:53.823Z,1.51
2023-04-19T10:35:53.826Z,1.44
2023-04-19T10:36:53.812Z,1.40
2023-04-19T10:37:53.782Z,1.42
2023-04-19T10:38:53.767Z,1.44
2023-04-19T10:39:53.747Z,1.42
2023-04-19T10:40:53.759Z,1.34
2023-04-19T10:41:53.725Z,1.30
2023-04-19T10:42:53.704Z,1.37
2023-04-19T10:43:53.698Z,1.48
2023-04-19T10:44:53.684Z,1.51
2023-04-19T10:45:53.719Z,1.52
2023-04-19T10:46:53.650Z,1.52
2023-04-19T10:47:53.688Z,1.54
2023-04-19T10:48:53.653Z,1.54
2023-04-19T10:49:53.612Z,1.44
2023-04-19T10:50:53.620Z,1.30
2023-04-19T10:51:53.588Z,1.19
2023-04-19T10:52:53.583Z,1.13
2023-04-19T10:53:53.588Z,1.11
2023-04-19T10:54:53.549Z,1.18
2023-04-19T10:55:53.549Z,1.22
2023-04-19T10:56:53.531Z,1.25
2023-04-19T10:57:53.519Z,1.25
2023-04-19T10:58:53.497Z,1.30
2023-04-19T10:59:53.487Z,1.34
2023-04-19T11:00:53.467Z,1.39
2023-04-19T11:01:53.745Z,1.43
2023-04-19T11:02:53.492Z,1.44
2023-04-19T11:03:53.751Z,1.49
2023-04-19T11:04:53.429Z,1.49
2023-04-19T11:05:53.408Z,1.49
2023-04-19T11:06:53.633Z,1.44
2023-04-19T11:07:53.381Z,1.39
2023-04-19T11:08:53.358Z,1.33
2023-04-19T11:09:53.344Z,1.27
2023-04-19T11:10:53.507Z,1.20
2023-04-19T11:11:53.336Z,1.15
2023-04-19T11:12:53.312Z,1.13
2023-04-19T11:13:53.316Z,1.10
2023-04-19T11:14:53.310Z,1.06
2023-04-19T11:15:53.271Z,1.00
2023-04-19T11:16:53.347Z,0.94
2023-04-19T11:18:08.817Z,0.92
2023-04-19T11:18:53.239Z,0.91
2023-04-19T11:19:53.221Z,0.94
2023-04-19T11:20:53.192Z,1.00
2023-04-19T11:21:53.205Z,1.08
2023-04-19T11:22:53.171Z,1.14
2023-04-19T11:23:53.170Z,1.14
2023-04-19T11:24:53.144Z,1.13
2023-04-19T11:25:53.132Z,1.09
2023-04-19T11:26:55.454Z,1.03
2023-04-19T11:27:53.220Z,1.01
2023-04-19T11:28:53.095Z,1.08
2023-04-19T11:29:53.079Z,1.15
2023-04-19T11:30:53.077Z,1.23
2023-04-19T11:31:53.065Z,1.29
2023-04-19T11:32:53.070Z,1.32
2023-04-19T11:33:53.046Z,1.33
2023-04-19T11:34:53.012Z,1.35
2023-04-19T11:35:53.005Z,1.39
2023-04-19T11:36:53.002Z,1.42
2023-04-19T11:37:53.015Z,1.46
2023-04-19T11:38:52.971Z,1.48
2023-04-19T11:39:52.952Z,1.49
2023-04-19T11:40:52.927Z,1.49
2023-04-19T11:41:52.942Z,1.42
2023-04-19T11:42:52.912Z,1.30
2023-04-19T11:43:52.904Z,1.25
2023-04-19T11:44:52.880Z,1.29
2023-04-19T11:45:52.910Z,1.35
2023-04-19T11:46:53.016Z,1.40
2023-04-19T11:47:52.903Z,1.44
2023-04-19T11:48:52.831Z,1.46
2023-04-19T11:49:52.835Z,1.42
2023-04-19T11:50:52.862Z,1.35
2023-04-19T11:51:52.811Z,1.33
2023-04-19T11:52:52.811Z,1.30
2023-04-19T11:53:52.770Z,1.32
2023-04-19T11:54:52.750Z,1.27
2023-04-19T11:55:52.773Z,1.20
2023-04-19T11:56:52.762Z,1.15
2023-04-19T11:57:52.727Z,1.16
2023-04-19T11:58:52.702Z,1.24
2023-04-19T11:59:52.697Z,1.30
2023-04-19T12:00:52.674Z,1.32
2023-04-19T12:01:52.671Z,1.28
2023-04-19T12:02:52.754Z,1.29
2023-04-19T12:03:52.977Z,1.34
2023-04-19T12:04:52.684Z,1.34
2023-04-19T12:05:52.803Z,1.37
2023-04-19T12:06:52.589Z,1.37
2023-04-19T12:07:52.592Z,1.40
2023-04-19T12:08:52.556Z,1.48
2023-04-19T12:09:52.547Z,1.54
2023-04-19T12:10:52.540Z,1.56
2023-04-19T12:11:52.519Z,1.58
2023-04-19T12:12:52.531Z,1.67
2023-04-19T12:13:52.514Z,1.72
2023-04-19T12:14:52.489Z,1.76
2023-04-19T12:15:52.487Z,1.77
2023-04-19T12:16:52.545Z,1.77
2023-04-19T12:17:57.302Z,1.78
2023-04-19T12:18:52.444Z,1.82
2023-04-19T12:19:52.417Z,1.85
2023-04-19T12:20:52.407Z,1.82
2023-04-19T12:21:52.398Z,1.77
2023-04-19T12:22:52.398Z,1.71
2023-04-19T12:23:52.365Z,1.65
2023-04-19T12:24:52.344Z,1.65
2023-04-19T12:25:52.343Z,1.61
2023-04-19T12:26:54.590Z,1.53
2023-04-19T12:27:52.318Z,1.44
2023-04-19T12:28:52.305Z,1.37
2023-04-19T12:29:52.281Z,1.32
2023-04-19T12:30:52.270Z,1.29
2023-04-19T12:31:52.334Z,1.32
2023-04-19T12:32:52.331Z,1.34
2023-04-19T12:33:52.219Z,1.38
2023-04-19T12:34:52.205Z,1.38
2023-04-19T12:35:52.193Z,1.51
2023-04-19T12:36:52.177Z,1.53
2023-04-19T12:37:52.202Z,1.58
2023-04-19T12:38:52.204Z,1.59
2023-04-19T12:39:53.001Z,1.62
2023-04-19T12:40:52.152Z,1.59
2023-04-19T12:41:52.119Z,1.63
2023-04-19T12:42:52.141Z,1.75
2023-04-19T12:43:52.100Z,1.65
2023-04-19T12:44:52.088Z,1.68
2023-04-19T12:45:52.118Z,1.66
2023-04-19T12:46:52.063Z,1.35
2023-04-19T12:47:52.101Z,1.30
2023-04-19T12:48:52.040Z,1.32
2023-04-19T12:49:52.049Z,1.72
2023-04-19T12:50:52.004Z,1.63
2023-04-19T12:51:52.002Z,1.84
2023-04-19T12:52:52.009Z,1.84
2023-04-19T12:53:51.972Z,1.76
2023-04-19T12:54:51.936Z,1.94
2023-04-19T12:55:51.943Z,1.80
2023-04-19T12:57:48.017Z,1.70
2023-04-19T12:58:48.984Z,1.71
2023-04-19T12:59:48.956Z,1.68
2023-04-19T13:00:48.946Z,1.66
2023-04-19T13:01:48.973Z,1.63
2023-04-19T13:02:49.039Z,1.59
2023-04-19T13:03:49.119Z,1.59
2023-04-19T13:04:49.238Z,1.62
2023-04-19T13:05:48.899Z,1.63
2023-04-19T13:06:48.880Z,1.61
2023-04-19T13:07:48.877Z,1.57
2023-04-19T13:08:48.845Z,1.59
2023-04-19T13:09:48.840Z,1.52
2023-04-19T13:10:48.810Z,1.46
2023-04-19T13:11:48.812Z,1.33
2023-04-19T13:12:48.816Z,1.09
2023-04-19T13:13:48.774Z,1.19
2023-04-19T13:14:48.766Z,0.71
2023-04-19T13:15:48.774Z,0.59
2023-04-19T13:16:48.725Z,0.53
2023-04-19T13:17:48.743Z,0.53
2023-04-19T13:18:48.707Z,0.53
2023-04-19T13:19:48.687Z,0.52
2023-04-19T13:20:48.675Z,0.51
2023-04-19T13:21:48.661Z,0.48
2023-04-19T13:22:48.662Z,0.46
2023-04-19T13:23:48.633Z,0.42
2023-04-19T13:24:48.626Z,0.38